Time;durP1;ratioP1;P1;durP2;ratioP2;P2;SDS_P1;SDS_P2;PMS_P1;PMS_P2;Temp;Humidity;BMP_temperature;BMP_pressure;BME280_temperature;BME280_humidity;BME280_pressure;Samples;Min_cycle;Max_cycle;Signal;HPM_P1;HPM_P2
2021/06/21 00:00:17;;;;;;;6.78;4.33;;;;;;;20.18;67.80;96206.69;127916;1093;24142;-86
2021/06/21 00:03:09;;;;;;;8.08;4.83;;;;;;;20.21;67.54;96203.28;127726;1093;114404;-86
2021/06/21 00:05:40;;;;;;;7.98;4.65;;;;;;;20.14;67.60;96206.61;127855;1092;53463;-86
2021/06/21 00:08:11;;;;;;;9.55;5.20;;;;;;;20.13;67.68;96200.45;127892;1092;31920;-86
2021/06/21 00:10:44;;;;;;;9.38;4.83;;;;;;;20.18;67.75;96202.08;127808;1093;113844;-85
2021/06/21 00:13:17;;;;;;;7.75;5.08;;;;;;;20.24;67.66;96199.89;127899;1093;22797;-91
2021/06/21 00:15:48;;;;;;;8.00;4.53;;;;;;;20.32;67.49;96198.93;127798;1093;113832;-89
2021/06/21 00:18:19;;;;;;;7.80;5.03;;;;;;;20.04;67.17;96197.15;127871;1094;24441;-89
2021/06/21 00:20:51;;;;;;;7.33;5.00;;;;;;;19.73;67.99;96205.23;127816;1093;115101;-87
2021/06/21 00:23:25;;;;;;;6.55;4.78;;;;;;;19.63;68.70;96200.36;127936;1092;22820;-88
2021/06/21 00:25:56;;;;;;;7.20;4.95;;;;;;;19.62;68.68;96204.96;127961;1093;22797;-86
2021/06/21 00:28:28;;;;;;;8.63;5.00;;;;;;;19.73;69.04;96206.02;127784;1093;113820;-89
2021/06/21 00:30:59;;;;;;;7.98;4.20;;;;;;;19.74;68.81;96199.50;127942;1092;22775;-90
2021/06/21 00:33:31;;;;;;;9.60;5.18;;;;;;;19.65;69.44;96190.03;127822;1093;114076;-89
2021/06/21 00:36:03;;;;;;;10.43;5.53;;;;;;;19.71;69.70;96196.73;127940;1093;22826;-88
2021/06/21 00:38:34;;;;;;;12.35;4.93;;;;;;;19.77;69.63;96190.73;127964;1093;22784;-86
2021/06/21 00:41:05;;;;;;;7.45;4.43;;;;;;;19.87;69.59;96184.06;127816;1092;113688;-85
2021/06/21 00:43:37;;;;;;;6.70;5.18;;;;;;;19.74;68.99;96177.20;127730;1093;22807;-85
2021/06/21 00:46:08;;;;;;;10.03;4.90;;;;;;;19.56;68.93;96172.18;127504;1093;113669;-85
2021/06/21 00:48:40;;;;;;;11.63;5.58;;;;;;;19.44;69.45;96172.22;127926;1093;23362;-86
2021/06/21 00:51:12;;;;;;;7.83;4.90;;;;;;;19.55;69.68;96172.50;127603;1093;115571;-84
2021/06/21 00:53:46;;;;;;;9.25;4.88;;;;;;;19.47;69.37;96171.53;127599;1093;22802;-88
2021/06/21 00:56:19;;;;;;;9.30;5.13;;;;;;;19.49;69.52;96174.64;127798;1093;45241;-87
2021/06/21 00:58:51;;;;;;;8.23;4.73;;;;;;;19.52;69.55;96171.27;127772;1093;114243;-88
2021/06/21 01:01:22;;;;;;;7.27;5.27;;;;;;;19.46;69.28;96164.59;127907;1092;31686;-86
2021/06/21 01:03:54;;;;;;;10.95;4.60;;;;;;;19.44;69.51;96166.84;127718;1092;114499;-85
2021/06/21 01:06:25;;;;;;;7.53;4.65;;;;;;;19.39;69.20;96158.23;127915;1092;24424;-87
2021/06/21 01:08:57;;;;;;;12.28;5.20;;;;;;;19.15;69.43;96159.18;127937;1092;115049;-86
2021/06/21 01:11:48;;;;;;;9.58;4.90;;;;;;;18.98;70.33;96160.25;128009;1093;35829;-86
2021/06/21 01:14:25;;;;;;;8.15;4.93;;;;;;;18.96;70.67;96155.22;128128;1091;22886;-86
2021/06/21 01:17:05;;;;;;;11.40;4.88;;;;;;;19.01;70.42;96161.48;128133;1093;113781;-87
2021/06/21 01:20:12;;;;;;;8.73;4.90;;;;;;;19.07;70.43;96150.14;127919;1093;55033;-86
2021/06/21 01:23:24;;;;;;;9.40;4.88;;;;;;;18.96;70.52;96147.16;128583;1092;113597;-86
2021/06/21 01:25:59;;;;;;;8.45;5.05;;;;;;;19.09;70.69;96149.79;128009;1093;37583;-86
2021/06/21 01:28:47;;;;;;;7.45;4.80;;;;;;;19.20;70.68;96151.64;128049;1091;114382;-86
2021/06/21 01:31:22;;;;;;;11.33;5.50;;;;;;;19.26;70.51;96144.87;128308;1093;22814;-86
2021/06/21 01:33:55;;;;;;;5.48;4.35;;;;;;;19.33;70.34;96141.59;128051;1092;114637;-86
2021/06/21 01:36:28;;;;;;;11.38;5.03;;;;;;;19.42;70.43;96142.19;128061;1092;27307;-85
2021/06/21 01:39:02;;;;;;;8.55;4.70;;;;;;;19.48;70.19;96143.52;127993;1093;115484;-84
2021/06/21 01:41:39;;;;;;;5.83;5.20;;;;;;;19.52;70.10;96147.06;128408;1092;23376;-85
2021/06/21 01:44:11;;;;;;;10.98;5.43;;;;;;;19.55;69.76;96137.55;128102;1093;26352;-86
2021/06/21 01:46:46;;;;;;;8.80;5.20;;;;;;;19.35;69.75;96136.66;127777;1093;113884;-87
2021/06/21 01:49:23;;;;;;;8.15;5.38;;;;;;;19.35;70.16;96131.28;127965;1093;25659;-86
2021/06/21 01:51:58;;;;;;;7.35;5.20;;;;;;;19.41;70.40;96135.26;129634;1093;113657;-86
2021/06/21 01:54:33;;;;;;;8.70;5.80;;;;;;;19.45;70.15;96133.45;128290;1093;30730;-86
2021/06/21 01:57:05;;;;;;;9.80;5.33;;;;;;;19.43;69.99;96127.66;128010;1092;114692;-84
2021/06/21 01:59:37;;;;;;;7.48;5.25;;;;;;;19.44;70.03;96128.43;127985;1092;24158;-85
2021/06/21 02:02:09;;;;;;;7.20;5.20;;;;;;;19.29;69.52;96119.23;128151;1093;22799;-84
2021/06/21 02:04:41;;;;;;;8.17;4.83;;;;;;;19.07;69.91;96125.17;128083;1092;114468;-85
2021/06/21 02:07:13;;;;;;;5.75;4.20;;;;;;;19.08;70.11;96122.14;127915;1093;22874;-85
2021/06/21 02:09:46;;;;;;;10.73;5.30;;;;;;;18.87;70.33;96116.22;127915;1092;113666;-86
2021/06/21 02:12:21;;;;;;;7.98;5.10;;;;;;;18.82;70.24;96114.55;128136;1093;22948;-85
2021/06/21 02:14:54;;;;;;;7.58;5.33;;;;;;;18.81;70.48;96112.98;128075;1092;114283;-85
2021/06/21 02:17:27;;;;;;;9.17;5.47;;;;;;;18.83;70.51;96112.64;127806;1093;27016;-85
2021/06/21 02:20:00;;;;;;;8.05;5.55;;;;;;;18.82;70.41;96111.08;128060;1092;23261;-85
2021/06/21 02:22:32;;;;;;;8.58;5.15;;;;;;;18.66;69.90;96105.67;128089;1092;113834;-86
2021/06/21 02:25:07;;;;;;;9.53;5.50;;;;;;;18.39;70.46;96102.60;128228;1091;22938;-85
2021/06/21 02:27:40;;;;;;;10.10;5.88;;;;;;;18.28;71.06;96098.83;128122;1093;112971;-85
2021/06/21 02:30:16;;;;;;;9.05;5.68;;;;;;;18.34;71.58;96094.80;127906;1092;37627;-85
2021/06/21 02:32:49;;;;;;;11.25;5.85;;;;;;;18.31;71.54;96092.02;128056;1093;115163;-85
2021/06/21 02:35:20;;;;;;;10.88;5.43;;;;;;;18.20;71.31;96088.24;127916;1093;26127;-85
2021/06/21 02:37:51;;;;;;;8.88;5.30;;;;;;;18.13;72.02;96080.76;127869;1093;22858;-84
2021/06/21 02:40:24;;;;;;;10.03;4.78;;;;;;;18.21;72.32;96087.91;127983;1093;114891;-85
2021/06/21 02:42:55;;;;;;;7.80;5.18;;;;;;;18.14;71.99;96090.36;127986;1093;26040;-85
2021/06/21 02:45:26;;;;;;;9.70;5.95;;;;;;;18.01;72.52;96081.56;127977;1092;113885;-84
2021/06/21 02:47:58;;;;;;;7.90;4.73;;;;;;;18.10;73.23;96084.91;127889;1093;43940;-85
2021/06/21 02:50:30;;;;;;;12.60;5.13;;;;;;;18.14;72.60;96079.63;128119;1092;22826;-85
2021/06/21 02:53:10;;;;;;;7.37;5.27;;;;;;;18.00;72.60;96087.27;125840;1092;2531609;-86
2021/06/21 02:55:49;;;;;;;7.63;5.05;;;;;;;17.95;73.08;96092.88;128149;1092;25687;-86
2021/06/21 02:58:25;;;;;;;8.18;4.70;;;;;;;18.03;73.49;96098.13;127686;1093;113679;-85
2021/06/21 03:00:59;;;;;;;7.08;4.90;;;;;;;18.06;73.05;96091.30;127856;1093;22812;-85
2021/06/21 03:03:39;;;;;;;7.88;4.98;;;;;;;17.98;73.14;96102.92;127924;1093;113819;-85
2021/06/21 03:06:11;;;;;;;10.13;5.00;;;;;;;18.01;73.61;96100.34;127889;1093;23448;-88
2021/06/21 03:08:44;;;;;;;9.83;5.13;;;;;;;18.17;73.59;96107.70;127548;1092;45644;-85
2021/06/21 03:11:18;;;;;;;9.38;5.83;;;;;;;18.12;73.25;96103.34;128099;1092;113838;-85
2021/06/21 03:13:53;;;;;;;6.73;5.05;;;;;;;18.08;73.54;96107.83;128024;1091;36570;-85
2021/06/21 03:16:27;;;;;;;7.10;4.80;;;;;;;18.20;73.91;96107.80;127840;1093;114466;-85
2021/06/21 03:18:59;;;;;;;12.05;5.70;;;;;;;18.35;73.86;96104.41;127977;1093;29274;-85
2021/06/21 03:21:30;;;;;;;11.28;5.35;;;;;;;18.50;74.30;96107.50;127989;1092;114025;-85
2021/06/21 03:24:04;;;;;;;8.70;5.75;;;;;;;18.65;73.86;96102.20;128137;1092;75912;-85
2021/06/21 03:26:36;;;;;;;8.93;5.48;;;;;;;18.76;73.60;96105.19;128021;1093;55746;-84
2021/06/21 03:29:15;;;;;;;8.90;4.80;;;;;;;18.92;73.54;96105.22;127671;1093;113848;-84
2021/06/21 03:31:49;;;;;;;7.83;5.00;;;;;;;19.07;73.37;96103.68;127706;1093;30005;-86
2021/06/21 03:34:23;;;;;;;7.83;4.95;;;;;;;19.12;72.99;96101.51;127543;1093;114353;-85
2021/06/21 03:36:54;;;;;;;7.03;4.95;;;;;;;19.23;73.03;96101.78;127647;1093;38836;-85
2021/06/21 03:39:25;;;;;;;8.45;5.58;;;;;;;19.33;72.93;96095.91;127627;1092;113870;-85
2021/06/21 03:41:57;;;;;;;7.43;5.43;;;;;;;19.43;72.52;96100.77;127961;1093;23334;-85
2021/06/21 03:44:28;;;;;;;10.00;6.08;;;;;;;19.52;72.63;96098.66;128090;1092;25362;-85
2021/06/21 03:46:59;;;;;;;10.05;5.38;;;;;;;19.59;72.24;96086.56;128001;1093;114779;-85
2021/06/21 03:49:31;;;;;;;6.85;4.53;;;;;;;19.69;72.25;96091.39;128137;1092;25912;-85
2021/06/21 03:52:02;;;;;;;8.13;4.70;;;;;;;19.77;71.89;96093.91;127732;1092;114448;-85
2021/06/21 03:54:34;;;;;;;7.90;4.63;;;;;;;19.83;72.30;96086.33;127851;1093;23035;-85
2021/06/21 03:57:06;;;;;;;8.63;5.25;;;;;;;19.89;72.18;96084.95;127911;1093;113876;-85
2021/06/21 03:59:38;;;;;;;8.73;5.40;;;;;;;19.88;71.91;96086.08;127982;1092;32958;-85
2021/06/21 04:02:09;;;;;;;9.30;5.08;;;;;;;19.77;71.97;96080.45;127685;1093;22883;-84
2021/06/21 04:04:41;;;;;;;10.50;5.13;;;;;;;19.75;71.86;96085.41;127512;1093;114670;-84
2021/06/21 04:07:12;;;;;;;8.50;4.55;;;;;;;19.84;72.56;96093.27;127419;1093;52289;-85
2021/06/21 04:09:44;;;;;;;10.23;5.10;;;;;;;19.92;72.61;96091.53;127665;1092;113744;-85
2021/06/21 04:12:16;;;;;;;9.03;4.95;;;;;;;19.88;72.76;96093.38;127807;1093;23205;-85
2021/06/21 04:14:47;;;;;;;10.15;5.05;;;;;;;19.92;72.42;96095.00;127742;1093;22920;-85
2021/06/21 04:17:19;;;;;;;7.68;5.43;;;;;;;19.99;72.73;96108.63;127803;1092;115027;-90
2021/06/21 04:19:51;;;;;;;8.55;5.78;;;;;;;20.12;72.65;96110.05;127791;1091;28395;-86
2021/06/21 04:22:22;;;;;;;9.38;5.28;;;;;;;20.27;72.35;96105.77;127638;1093;114101;-86
2021/06/21 04:24:54;;;;;;;6.73;5.50;;;;;;;20.41;72.21;96103.41;127666;1093;23102;-85
2021/06/21 04:27:25;;;;;;;10.75;5.50;;;;;;;20.54;71.88;96104.02;127694;1093;113864;-85
2021/06/21 04:29:57;;;;;;;6.85;4.58;;;;;;;20.62;71.80;96108.42;127708;1093;23527;-86
2021/06/21 04:32:30;;;;;;;7.43;5.03;;;;;;;20.61;71.39;96108.78;127529;1093;25242;-89
2021/06/21 04:35:02;;;;;;;9.50;5.40;;;;;;;20.61;71.64;96108.78;127666;1093;113708;-87
2021/06/21 04:37:33;;;;;;;7.50;4.97;;;;;;;20.64;71.23;96110.77;127653;1093;22978;-86
2021/06/21 04:40:07;;;;;;;7.53;5.40;;;;;;;20.72;71.29;96102.48;127723;1093;114161;-85
2021/06/21 04:42:42;;;;;;;11.07;5.10;;;;;;;20.85;71.06;96096.94;127939;1093;23269;-85
2021/06/21 04:45:14;;;;;;;7.15;5.08;;;;;;;20.95;70.55;96107.11;127846;1093;114570;-84
2021/06/21 04:47:46;;;;;;;9.43;5.73;;;;;;;21.07;70.15;96106.95;127945;1093;22792;-84
2021/06/21 04:50:19;;;;;;;8.63;5.23;;;;;;;21.14;70.11;96101.70;127918;1093;53139;-84
2021/06/21 04:52:51;;;;;;;8.05;5.50;;;;;;;21.23;69.39;96107.63;127889;1093;115345;-84
2021/06/21 04:55:24;;;;;;;7.50;4.78;;;;;;;21.28;69.69;96107.38;127932;1093;26271;-84
2021/06/21 04:57:55;;;;;;;9.13;4.55;;;;;;;21.38;69.50;96114.06;127835;1093;112757;-84
2021/06/21 05:00:28;;;;;;;8.78;5.13;;;;;;;21.47;68.96;96114.61;127929;1093;58671;-86
2021/06/21 05:02:59;;;;;;;7.30;5.23;;;;;;;21.64;69.16;96121.44;127839;1093;114298;-85
2021/06/21 05:05:31;;;;;;;8.83;5.28;;;;;;;21.83;68.60;96115.97;127861;1093;48335;-85
2021/06/21 05:08:03;;;;;;;8.68;4.83;;;;;;;22.04;68.77;96117.41;127981;1093;23657;-86
2021/06/21 05:10:35;;;;;;;7.80;4.90;;;;;;;22.18;68.36;96129.22;127877;1093;113731;-86
2021/06/21 05:13:08;;;;;;;6.88;5.23;;;;;;;22.36;68.42;96118.65;127871;1093;28584;-86
2021/06/21 05:15:40;;;;;;;6.75;5.10;;;;;;;22.58;67.78;96117.01;127775;1093;114065;-84
2021/06/21 05:18:11;;;;;;;9.48;5.75;;;;;;;22.80;67.20;96120.72;127940;1093;22792;-84
2021/06/21 05:20:43;;;;;;;8.40;5.48;;;;;;;22.88;66.63;96119.70;127949;1093;22781;-85
2021/06/21 05:23:15;;;;;;;9.13;5.20;;;;;;;23.11;66.72;96130.38;127829;1093;113879;-84
2021/06/21 05:25:46;;;;;;;9.30;5.40;;;;;;;23.75;66.80;96125.56;127870;1093;41813;-84
2021/06/21 05:28:18;;;;;;;14.30;4.78;;;;;;;24.76;66.85;96131.20;127787;1092;113764;-85
2021/06/21 05:30:49;;;;;;;10.25;5.25;;;;;;;25.87;64.65;96126.78;127887;1093;22894;-85
2021/06/21 05:33:21;;;;;;;10.08;4.80;;;;;;;26.89;63.33;96129.67;127863;1092;114382;-85
2021/06/21 05:35:53;;;;;;;10.35;4.60;;;;;;;27.31;60.19;96123.25;127883;1093;24042;-84
2021/06/21 05:38:24;;;;;;;9.18;4.80;;;;;;;27.39;59.04;96126.69;127952;1093;45715;-85
2021/06/21 05:40:56;;;;;;;9.40;4.98;;;;;;;27.47;57.84;96122.75;127986;1092;113742;-85
2021/06/21 05:43:27;;;;;;;7.53;4.65;;;;;;;27.86;57.24;96117.00;127938;1093;22802;-85
2021/06/21 05:45:59;;;;;;;7.23;4.30;;;;;;;28.45;56.71;96125.04;127749;1093;113680;-86
2021/06/21 05:48:30;;;;;;;6.80;4.48;;;;;;;29.35;55.52;96121.97;128019;1092;23603;-85
2021/06/21 05:51:05;;;;;;;9.50;4.15;;;;;;;29.87;54.54;96114.16;127905;1092;114197;-84
2021/06/21 05:53:36;;;;;;;6.05;4.05;;;;;;;30.63;53.21;96115.15;127919;1092;22828;-84
2021/06/21 05:56:08;;;;;;;6.60;4.05;;;;;;;31.04;52.11;96119.39;127938;1093;36265;-84
2021/06/21 05:58:40;;;;;;;9.08;3.88;;;;;;;31.25;50.88;96124.45;127991;1093;114169;-86
2021/06/21 06:01:11;;;;;;;10.23;3.95;;;;;;;31.42;50.39;96125.23;127850;1093;22813;-86
2021/06/21 06:03:43;;;;;;;10.10;4.18;;;;;;;31.85;48.71;96118.77;127783;1092;114153;-86
2021/06/21 06:06:14;;;;;;;9.60;3.73;;;;;;;32.19;48.03;96113.56;128095;1092;22801;-87
2021/06/21 06:08:46;;;;;;;10.35;4.10;;;;;;;32.70;47.53;96113.02;128107;1093;22813;-86
2021/06/21 06:11:17;;;;;;;10.58;4.10;;;;;;;32.61;45.89;96110.13;127815;1093;113715;-87
2021/06/21 06:13:48;;;;;;;11.05;3.85;;;;;;;31.95;45.67;96109.48;128061;1091;48904;-86
2021/06/21 06:16:20;;;;;;;9.78;3.43;;;;;;;32.24;45.36;96104.05;127926;1093;118999;-88
2021/06/21 06:18:51;;;;;;;7.70;3.58;;;;;;;32.05;45.99;96102.19;128171;1093;22793;-89
2021/06/21 06:25:05;;;;;;;7.05;3.03;;;;;;;33.52;44.91;96099.63;128438;1093;22813;-90
2021/06/21 06:27:38;;;;;;;6.05;3.25;;;;;;;33.67;43.88;96097.97;127834;1093;115022;-88
2021/06/21 06:30:13;;;;;;;6.20;3.43;;;;;;;33.85;42.99;96100.92;128112;1092;23361;-90
2021/06/21 06:32:46;;;;;;;6.75;3.40;;;;;;;33.78;42.94;96101.11;126062;1092;2132399;-90
2021/06/21 06:35:18;;;;;;;6.63;3.75;;;;;;;34.27;42.87;96092.42;128062;1093;22796;-88
2021/06/21 06:37:50;;;;;;;7.45;3.00;;;;;;;34.88;41.96;96102.06;127846;1092;112987;-88
2021/06/21 06:40:22;;;;;;;6.80;3.10;;;;;;;35.16;40.86;96110.48;128036;1093;24124;-88
2021/06/21 06:42:54;;;;;;;6.35;2.78;;;;;;;34.91;41.03;96101.19;127950;1093;23452;-88
2021/06/21 06:45:26;;;;;;;8.33;3.10;;;;;;;35.26;40.19;96104.56;127927;1093;113801;-89
2021/06/21 06:47:57;;;;;;;6.48;3.23;;;;;;;35.72;39.99;96107.48;127874;1093;53516;-89
2021/06/21 06:50:29;;;;;;;6.63;3.13;;;;;;;36.29;39.44;96100.38;127811;1093;113507;-89
2021/06/21 06:53:01;;;;;;;12.43;3.95;;;;;;;36.21;38.21;96103.92;127988;1093;40875;-90
2021/06/21 06:58:24;;;;;;;6.10;3.43;;;;;;;36.60;38.80;96085.69;127934;1093;22811;-87
2021/06/21 07:00:56;;;;;;;9.80;3.15;;;;;;;36.99;37.68;96094.97;127931;1093;53863;-88
2021/06/21 07:03:27;;;;;;;9.50;3.10;;;;;;;36.50;37.33;96090.44;127857;1093;113654;-89
2021/06/21 07:05:58;;;;;;;8.25;3.45;;;;;;;36.65;37.80;96087.05;128119;1092;22792;-89
2021/06/21 07:08:32;;;;;;;8.50;3.60;;;;;;;36.96;36.30;96095.90;127894;1093;113870;-88
2021/06/21 07:11:04;;;;;;;6.75;3.85;;;;;;;37.29;36.47;96084.90;128034;1093;22839;-88
2021/06/21 07:13:36;;;;;;;6.70;3.20;;;;;;;37.73;36.41;96090.72;128210;1092;23463;-89
2021/06/21 07:16:08;;;;;;;5.15;3.50;;;;;;;38.00;34.68;96086.98;128067;1092;113825;-89
2021/06/21 07:18:40;;;;;;;9.05;3.10;;;;;;;37.37;35.58;96085.34;128022;1093;23775;-88
2021/06/21 07:21:12;;;;;;;7.88;3.05;;;;;;;37.41;35.40;96085.92;128038;1092;113796;-90
2021/06/21 07:23:44;;;;;;;5.05;2.93;;;;;;;37.83;35.51;96083.10;128125;1092;25398;-88
2021/06/21 07:26:15;;;;;;;7.33;2.83;;;;;;;38.22;34.01;96078.39;128034;1092;115079;-86
2021/06/21 07:28:47;;;;;;;12.03;3.40;;;;;;;37.86;34.37;96075.86;127987;1093;22848;-87
2021/06/21 07:31:19;;;;;;;8.25;2.90;;;;;;;37.85;34.45;96077.09;123584;1093;4549355;-85
2021/06/21 07:33:52;;;;;;;8.47;3.20;;;;;;;37.81;33.55;96082.05;127792;1091;114513;-86
2021/06/21 07:36:26;;;;;;;9.67;3.70;;;;;;;38.01;33.11;96076.70;127911;1092;49251;-85
2021/06/21 07:38:58;;;;;;;5.20;2.50;;;;;;;37.87;32.46;96077.41;127816;1093;114305;-88
2021/06/21 07:41:32;;;;;;;10.97;2.80;;;;;;;37.67;32.95;96081.48;127939;1093;26493;-88
2021/06/21 07:44:05;;;;;;;5.63;2.70;;;;;;;37.48;32.76;96079.30;127941;1093;25000;-88
2021/06/21 07:46:37;;;;;;;6.88;2.70;;;;;;;36.48;31.53;96072.80;127858;1093;113595;-87
2021/06/21 07:49:09;;;;;;;9.75;2.93;;;;;;;35.64;32.21;96078.69;127937;1093;29354;-87
2021/06/21 07:51:41;;;;;;;7.25;2.50;;;;;;;35.00;33.12;96081.17;127815;1093;114166;-86
2021/06/21 07:54:14;;;;;;;7.05;2.65;;;;;;;34.90;35.04;96079.58;127903;1093;27260;-86
2021/06/21 07:56:46;;;;;;;9.93;3.05;;;;;;;35.76;34.01;96069.52;127846;1093;114088;-87
2021/06/21 07:59:17;;;;;;;8.48;2.70;;;;;;;35.03;33.09;96064.49;127904;1093;22841;-85
2021/06/21 08:01:48;;;;;;;9.47;2.47;;;;;;;34.37;32.69;96069.30;127945;1092;29276;-87
2021/06/21 08:04:20;;;;;;;6.30;2.95;;;;;;;33.87;33.66;96067.47;127881;1092;113741;-86
2021/06/21 08:06:51;;;;;;;9.00;3.20;;;;;;;33.65;33.90;96068.17;127975;1093;22806;-86
2021/06/21 08:09:23;;;;;;;8.65;3.00;;;;;;;33.69;35.60;96059.80;127852;1092;113766;-85
2021/06/21 08:11:54;;;;;;;8.05;3.20;;;;;;;34.38;36.63;96059.06;127959;1093;29303;-85
2021/06/21 08:14:26;;;;;;;5.45;2.55;;;;;;;35.23;34.47;96061.38;127800;1093;114906;-87
2021/06/21 08:16:57;;;;;;;9.08;3.53;;;;;;;35.21;34.86;96052.03;127950;1091;45256;-90
2021/06/21 08:19:29;;;;;;;10.03;2.20;;;;;;;35.71;33.73;96056.31;127913;1093;26338;-89
2021/06/21 08:22:01;;;;;;;8.20;1.95;;;;;;;36.36;33.63;96063.45;127860;1093;113875;-89
2021/06/21 08:24:32;;;;;;;9.63;2.25;;;;;;;36.64;32.70;96055.13;127896;1092;23381;-88
2021/06/21 08:27:04;;;;;;;7.38;2.13;;;;;;;37.14;32.40;96068.19;127892;1093;114101;-90
2021/06/21 08:29:36;;;;;;;9.10;2.23;;;;;;;37.77;31.44;96068.40;127941;1093;23739;-89
2021/06/21 08:32:09;;;;;;;10.23;2.68;;;;;;;38.10;31.34;96073.84;127923;1093;23805;-90
2021/06/21 08:34:41;;;;;;;9.43;2.45;;;;;;;38.59;31.11;96069.77;127656;1093;113677;-87
2021/06/21 08:37:13;;;;;;;7.50;2.68;;;;;;;39.21;30.13;96071.59;127821;1092;22811;-86
2021/06/21 08:39:44;;;;;;;8.23;2.33;;;;;;;38.52;28.58;96067.36;128037;1093;114146;-86
2021/06/21 08:42:17;;;;;;;7.00;2.10;;;;;;;37.18;28.42;96064.52;128111;1091;24341;-88
2021/06/21 08:44:49;;;;;;;8.10;2.70;;;;;;;36.58;29.93;96058.50;127919;1093;114082;-90
2021/06/21 08:47:22;;;;;;;7.88;2.28;;;;;;;36.90;31.25;96063.84;127962;1092;48010;-92
2021/06/21 08:49:56;;;;;;;5.35;2.50;;;;;;;37.36;30.73;96067.22;128132;1092;24644;-93
2021/06/21 08:52:27;;;;;;;7.85;2.35;;;;;;;37.13;30.32;96061.13;127943;1092;113669;-92
2021/06/21 08:55:04;;;;;;;9.65;2.28;;;;;;;36.97;30.89;96058.73;128270;1092;54373;-92
2021/06/21 08:57:38;;;;;;;5.05;2.28;;;;;;;36.69;30.21;96055.27;128316;1092;113879;-92
2021/06/21 09:00:16;;;;;;;8.75;2.35;;;;;;;36.41;31.42;96060.06;129866;1092;25839;-92
2021/06/21 09:02:48;;;;;;;4.00;2.33;;;;;;;36.13;31.34;96064.05;129765;1093;114723;-93
2021/06/21 09:05:20;;;;;;;11.45;2.68;;;;;;;36.05;32.28;96057.31;127959;1093;23973;-91
2021/06/21 09:08:03;;;;;;;6.53;2.73;;;;;;;35.48;31.53;96070.68;128018;1092;31799;-91
2021/06/21 09:10:36;;;;;;;13.18;2.95;;;;;;;35.04;32.49;96066.03;127815;1092;113559;-93
2021/06/21 09:13:11;;;;;;;6.35;2.48;;;;;;;34.60;32.63;96065.31;127943;1093;35111;-94
2021/06/21 09:15:44;;;;;;;6.45;2.83;;;;;;;33.81;32.58;96058.23;127838;1093;114343;-91
2021/06/21 09:18:39;;;;;;;8.20;3.35;;;;;;;32.64;33.59;96060.61;127935;1092;23325;-96
2021/06/21 09:21:30;;;;;;;6.53;2.60;;;;;;;31.66;35.13;96060.05;127931;1093;113683;-93
2021/06/21 09:24:12;;;;;;;9.43;3.08;;;;;;;31.68;35.93;96059.66;127894;1092;27406;-92
2021/06/21 09:26:44;;;;;;;7.40;3.05;;;;;;;31.85;35.64;96064.70;127874;1092;113886;-91
2021/06/21 09:29:17;;;;;;;8.13;3.18;;;;;;;32.11;36.58;96073.06;128181;1092;25581;-92
2021/06/21 09:31:57;;;;;;;11.53;2.78;;;;;;;32.36;36.57;96061.42;127912;1093;28963;-92
2021/06/21 09:34:29;;;;;;;6.30;2.93;;;;;;;32.08;35.99;96057.45;127771;1093;114605;-94
2021/06/21 09:37:09;;;;;;;7.33;2.93;;;;;;;31.70;36.95;96055.28;127894;1093;25360;-92
2021/06/21 09:39:43;;;;;;;8.93;3.10;;;;;;;31.75;38.64;96054.78;127798;1093;114326;-91
2021/06/21 09:42:22;;;;;;;8.88;3.28;;;;;;;31.68;37.54;96054.94;127850;1093;24116;-91
2021/06/21 09:44:57;;;;;;;9.00;3.30;;;;;;;31.85;39.85;96051.00;127779;1093;114309;-94
2021/06/21 09:47:34;;;;;;;6.67;3.30;;;;;;;32.29;39.20;96056.14;127856;1093;29396;-92
2021/06/21 09:50:13;;;;;;;9.95;3.15;;;;;;;32.16;38.19;96053.32;127978;1093;23246;-92
2021/06/21 09:52:52;;;;;;;8.33;3.48;;;;;;;32.18;38.72;96050.91;127819;1093;113458;-92
2021/06/21 09:55:30;;;;;;;6.30;2.95;;;;;;;32.38;39.02;96050.80;127908;1093;24627;-91
2021/06/21 09:58:14;;;;;;;7.90;2.98;;;;;;;32.59;38.82;96052.92;127812;1092;114265;-91
2021/06/21 10:00:48;;;;;;;5.83;2.93;;;;;;;32.77;38.06;96052.41;127891;1093;23448;-92
2021/06/21 10:03:25;;;;;;;7.55;2.73;;;;;;;32.75;37.69;96052.07;127781;1092;113711;-93
2021/06/21 10:06:08;;;;;;;6.65;2.90;;;;;;;32.78;37.56;96042.95;127862;1093;41310;-92
2021/06/21 10:08:45;;;;;;;6.40;3.30;;;;;;;32.54;37.62;96047.22;127788;1093;114149;-92
2021/06/21 10:11:34;;;;;;;4.90;2.90;;;;;;;32.26;37.43;96048.76;127853;1093;29688;-92
2021/06/21 10:14:08;;;;;;;8.03;3.30;;;;;;;32.36;38.32;96050.44;127969;1092;26597;-93
2021/06/21 10:16:41;;;;;;;5.45;2.70;;;;;;;32.43;37.50;96040.05;127765;1093;114448;-93
2021/06/21 10:19:14;;;;;;;7.77;2.77;;;;;;;32.62;38.02;96034.81;127892;1092;25878;-93
2021/06/21 10:21:48;;;;;;;11.35;3.15;;;;;;;32.61;37.10;96030.53;127790;1093;114312;-92
2021/06/21 10:24:20;;;;;;;6.05;2.80;;;;;;;32.37;37.58;96033.55;127891;1093;33719;-91
2021/06/21 10:26:53;;;;;;;8.25;2.70;;;;;;;32.41;37.65;96033.47;127802;1093;114415;-92
2021/06/21 10:29:26;;;;;;;5.68;2.88;;;;;;;32.23;37.35;96036.66;127895;1092;25896;-92
2021/06/21 10:31:58;;;;;;;8.25;2.73;;;;;;;32.10;37.33;96033.13;127894;1093;23095;-92
2021/06/21 10:34:30;;;;;;;6.85;2.75;;;;;;;32.12;37.62;96027.97;127741;1093;114130;-92
2021/06/21 10:37:02;;;;;;;6.35;2.58;;;;;;;32.24;37.98;96038.22;127887;1093;25160;-92
2021/06/21 10:39:36;;;;;;;4.78;2.78;;;;;;;32.40;37.95;96029.95;127874;1093;113874;-94
2021/06/21 10:42:26;;;;;;;5.68;3.00;;;;;;;32.48;37.76;96028.53;127942;1093;33263;-94
2021/06/21 10:44:59;;;;;;;6.63;2.68;;;;;;;32.57;37.94;96018.89;127808;1093;113898;-93
2021/06/21 10:47:34;;;;;;;5.05;2.55;;;;;;;32.63;37.84;96017.13;127900;1093;24457;-93
2021/06/21 10:50:11;;;;;;;7.90;2.50;;;;;;;32.66;38.21;96017.05;127890;1093;24674;-91
2021/06/21 10:52:47;;;;;;;10.13;2.73;;;;;;;32.75;37.97;96021.88;127780;1093;113652;-91
2021/06/21 10:55:48;;;;;;;7.60;2.80;;;;;;;32.69;37.28;96018.91;127922;1093;22819;-92
2021/06/21 10:58:45;;;;;;;7.50;2.70;;;;;;;32.66;37.81;96008.81;127578;1093;113822;-90
2021/06/21 11:01:22;;;;;;;6.08;2.25;;;;;;;32.53;37.10;96010.00;127905;1093;25577;-92
2021/06/21 11:03:54;;;;;;;9.58;2.78;;;;;;;32.34;36.96;96009.73;127799;1091;113019;-92
2021/06/21 11:07:08;;;;;;;6.75;2.90;;;;;;;31.71;35.73;96012.96;127906;1093;24793;-92
2021/06/21 11:09:46;;;;;;;8.18;3.15;;;;;;;31.06;37.64;96010.22;127606;1093;115708;-93
2021/06/21 11:12:41;;;;;;;7.75;2.68;;;;;;;31.11;37.03;96006.98;127897;1093;26212;-92
2021/06/21 11:15:17;;;;;;;7.80;3.10;;;;;;;30.78;37.19;96002.66;127776;1093;113672;-93
2021/06/21 11:18:00;;;;;;;9.90;2.48;;;;;;;30.51;38.29;96003.58;127950;1092;25675;-94
2021/06/21 11:20:39;;;;;;;7.85;2.70;;;;;;;30.69;38.81;95998.55;127792;1093;113861;-93
2021/06/21 11:23:13;;;;;;;10.73;2.98;;;;;;;31.00;38.83;95993.53;127883;1093;22851;-94
2021/06/21 11:25:49;;;;;;;5.93;2.50;;;;;;;31.03;37.19;95997.38;127928;1093;23857;-92
2021/06/21 11:28:45;;;;;;;8.28;2.83;;;;;;;30.57;38.00;95993.70;127822;1093;114494;-93
2021/06/21 11:31:28;;;;;;;8.83;2.88;;;;;;;30.40;38.84;95992.09;127879;1093;26806;-92
2021/06/21 11:34:02;;;;;;;7.18;2.53;;;;;;;30.53;38.71;95994.95;127739;1093;112691;-93
2021/06/21 11:36:41;;;;;;;7.30;2.70;;;;;;;30.45;38.78;95991.61;127931;1093;25220;-91
2021/06/21 11:39:24;;;;;;;5.43;2.60;;;;;;;30.42;38.87;95992.45;127811;1093;114266;-92
2021/06/21 11:41:58;;;;;;;8.10;3.13;;;;;;;30.31;39.83;95987.20;127863;1092;26819;-92
2021/06/21 11:44:50;;;;;;;7.28;2.48;;;;;;;30.48;40.81;95984.52;127773;1091;114086;-95
2021/06/21 11:47:28;;;;;;;5.75;2.38;;;;;;;30.78;40.59;95972.55;127905;1093;24820;-93
2021/06/21 11:50:11;;;;;;;5.77;2.77;;;;;;;30.97;40.39;95974.47;127939;1093;23969;-91
2021/06/21 11:52:48;;;;;;;7.27;3.07;;;;;;;31.11;40.16;95970.59;127828;1093;113681;-92
2021/06/21 11:55:21;;;;;;;7.18;2.50;;;;;;;31.19;40.04;95977.48;127865;1093;29168;-92
2021/06/21 11:57:58;;;;;;;4.78;2.75;;;;;;;31.28;39.73;95972.95;127802;1093;113672;-91